Data for 10/24/2009

Time Sea-Level Adjusted Pressure Absolute Pressure Temperature Relative Humidity Dew Point   
(mb) (inHg) (mb) (inHg) (C) (F) (%) (C) (F)
00:05 1011 29.85 840 24.81 8 46.3 75 3.8 38.8
00:10 1011 29.85 840 24.81 7.9 46.1 74 3.6 38.5
00:15 1011 29.85 840 24.81 8 46.4 74 3.7 38.7
00:20 1011 29.85 841 24.83 8.1 46.5 74 3.7 38.6
00:25 1011 29.85 840 24.81 8 46.4 75 3.8 38.9
00:30 1011 29.85 840 24.81 8 46.5 73 3.4 38.1
00:35 1011 29.85 841 24.83 8.2 46.8 72 3.5 38.3
00:40 1012 29.88 841 24.83 8.1 46.6 74 3.9 38.9
00:45 1011 29.85 841 24.83 8 46.3 77 4.1 39.5
00:50 1011 29.85 841 24.83 7.8 46 75 3.7 38.7
00:55 1011 29.85 840 24.81 7.9 46.3 76 3.9 39.1
01:00 1011 29.85 840 24.81 8.1 46.5 77 4.3 39.7
01:05 1011 29.85 840 24.81 7.8 46 78 4.2 39.5
01:10 1011 29.85 840 24.81 7.7 45.9 78 4.1 39.4
01:15 1011 29.85 841 24.83 7.7 45.8 78 4.1 39.5
01:20 1011 29.85 841 24.83 7.7 45.8 78 4.1 39.4
01:25 1011 29.85 841 24.83 7.6 45.8 80 4.4 39.9
01:30 1011 29.85 841 24.83 7.5 45.5 80 4.3 39.7
01:35 1011 29.85 841 24.83 7.5 45.4 80 4.3 39.8
01:40 1011 29.85 840 24.81 7.5 45.5 77 3.7 38.7
01:45 1011 29.85 840 24.81 7.9 46.1 73 3.4 38.1
01:50 1011 29.85 840 24.81 8.1 46.5 73 3.5 38.4
01:55 1011 29.85 840 24.81 8.2 46.8 72 3.6 38.4
02:00 1011 29.85 840 24.81 8.2 46.8 71 3.4 38
02:05 1011 29.85 840 24.81 8.2 46.8 72 3.5 38.4
02:10 1011 29.85 840 24.81 8.2 46.8 70 3.1 37.6
02:15 1011 29.85 840 24.81 8.5 47.3 68 3 37.4
02:20 1011 29.85 840 24.81 8.6 47.5 67 2.9 37.3
02:25 1011 29.85 840 24.81 8.6 47.5 68 3.1 37.5
02:30 1011 29.85 840 24.81 8.5 47.3 69 3.2 37.8
02:35 1011 29.85 840 24.81 8.4 47.1 70 3.2 37.8
02:40 1011 29.85 840 24.81 8.3 46.9 69 3 37.3
02:45 1011 29.85 840 24.81 8.2 46.8 70 3 37.4
02:50 1011 29.85 840 24.81 8.2 46.7 68 2.6 36.6
02:55 1011 29.85 840 24.81 8.2 46.7 67 2.5 36.4
03:00 1011 29.85 840 24.81 8.1 46.6 67 2.4 36.3
03:05 1011 29.85 840 24.81 8.2 46.7 69 2.8 37
03:10 1011 29.85 840 24.81 8 46.3 71 3 37.3
03:15 1011 29.85 840 24.81 7.8 46 70 2.7 36.9
03:20 1011 29.85 840 24.81 7.8 46.1 70 2.7 36.9
03:25 1011 29.85 840 24.81 7.9 46.3 67 2.3 36.1
03:30 1011 29.85 840 24.81 7.9 46.2 65 1.9 35.3
03:35 1011 29.85 840 24.81 7.8 46 64 1.5 34.7
03:40 1011 29.85 840 24.81 7.8 46 63 1.3 34.3
03:45 1011 29.85 840 24.81 7.8 46.1 62 1 33.9
03:50 1011 29.85 840 24.81 8 46.4 59 0.5 32.8
03:55 1011 29.85 840 24.81 8.3 46.9 58 0.6 33
04:00 1011 29.85 840 24.81 8.3 47 59 0.8 33.4
04:05 1011 29.85 840 24.81 8.2 46.7 57 0.2 32.4
04:10 1011 29.85 840 24.81 8.2 46.8 57 0.2 32.4
04:15 1011 29.85 840 24.81 8.2 46.7 58 0.4 32.7
04:20 1011 29.85 840 24.81 8.1 46.5 58 0.2 32.4
04:25 1011 29.85 840 24.81 8.1 46.5 57 0 32
04:30 1011 29.85 840 24.81 8.1 46.6 54 -0.7 30.8
04:35 1011 29.85 840 24.81 8.2 46.7 55 -0.4 31.4
04:40 1011 29.85 840 24.81 8.1 46.7 55 -0.4 31.4
04:45 1011 29.85 840 24.81 8.1 46.5 54 -0.7 30.7
04:50 1011 29.85 840 24.81 7.9 46.2 53 -1.1 29.9
04:55 1011 29.85 840 24.81 7.9 46.2 51 -1.6 29.1
05:00 1011 29.85 840 24.81 8 46.3 52 -1.3 29.7
05:05 1011 29.85 840 24.81 8 46.4 50 -1.8 28.8
05:10 1011 29.85 840 24.81 8.3 46.9 47 -2.3 27.8
05:15 1011 29.85 840 24.81 8.5 47.3 47 -2.2 28.1
05:20 1011 29.85 840 24.81 8.4 47.2 49 -1.7 29
05:25 1011 29.85 840 24.81 8.3 46.9 51 -1.3 29.7
05:30 1011 29.85 840 24.81 8.3 46.9 50 -1.6 29.1
05:35 1011 29.85 840 24.81 8.3 47 50 -1.5 29.4
05:40 1011 29.85 840 24.81 8.2 46.8 52 -0.9 30.4
05:45 1011 29.85 840 24.81 8 46.5 53 -1.1 30.1
05:50 1011 29.85 840 24.81 8 46.4 53 -1.1 30
05:55 1011 29.85 840 24.81 7.9 46.2 54 -0.8 30.6
06:00 1011 29.85 840 24.81 7.8 46 54 -0.8 30.5
06:05 1011 29.85 840 24.81 7.7 45.9 55 -0.6 30.9
06:10 1011 29.85 840 24.81 7.6 45.6 56 -0.6 30.9
06:15 1011 29.85 840 24.81 7.6 45.7 55 -0.9 30.4
06:20 1011 29.85 840 24.81 7.7 45.8 54 -1.1 30.1
06:25 1011 29.85 840 24.81 7.8 46 53 -1.2 29.8
06:30 1011 29.85 840 24.81 7.8 46 53 -1.1 30
06:35 1011 29.85 840 24.81 7.6 45.7 53 -1.2 29.8
06:40 1011 29.85 840 24.81 7.6 45.6 53 -1.3 29.6
06:45 1011 29.85 840 24.81 7.6 45.7 53 -1.3 29.6
06:50 1011 29.85 840 24.81 7.7 45.8 52 -1.6 29.2
06:55 1011 29.85 840 24.81 7.7 45.8 51 -1.8 28.8
07:00 1011 29.85 840 24.81 7.7 45.8 50 -2.1 28.3
07:05 1011 29.85 840 24.81 7.8 46 49 -2.2 28
07:10 1011 29.85 840 24.81 7.9 46.1 47 -2.8 26.9
07:15 1011 29.85 840 24.81 8.1 46.5 46 -2.9 26.8
07:20 1011 29.85 840 24.81 8.1 46.5 47 -2.7 27.2
07:25 1011 29.85 840 24.81 7.9 46.3 45 -3.1 26.4
07:30 1011 29.85 840 24.81 8 46.3 44 -3.4 25.9
07:35 1011 29.85 840 24.81 8 46.3 46 -2.8 27
07:40 1011 29.85 840 24.81 7.8 46.1 47 -2.9 26.8
07:45 1011 29.85 840 24.81 7.7 45.8 46 -3.2 26.3
07:50 1011 29.85 840 24.81 7.7 45.8 48 -2.5 27.5
07:55 1011 29.85 840 24.81 7.4 45.4 49 -2.5 27.4
08:00 1011 29.85 840 24.81 7.3 45.2 48 -2.9 26.8
08:05 1011 29.85 841 24.83 7.3 45.1 49 -2.6 27.3
08:10 1011 29.85 841 24.83 7.2 45 50 -2.5 27.5
08:15 1011 29.85 841 24.83 7.2 45 49 -2.7 27.1
08:20 1012 29.88 841 24.83 7.3 45.1 50 -2.5 27.5
08:25 1012 29.88 841 24.83 7.3 45.2 48 -2.8 27
08:30 1012 29.88 841 24.83 7.4 45.2 48 -2.8 27
08:35 1012 29.88 841 24.83 7.3 45.2 46 -3.5 25.7
08:40 1012 29.88 841 24.83 7.5 45.5 45 -3.7 25.4
08:45 1012 29.88 841 24.83 7.5 45.6 44 -3.9 25
08:50 1012 29.88 841 24.83 7.6 45.6 44 -4 24.9
08:55 1012 29.88 841 24.83 7.5 45.5 44 -3.9 25
09:00 1012 29.88 841 24.83 7.5 45.5 45 -3.7 25.3
09:05 1012 29.88 841 24.83 7.4 45.3 46 -3.3 26
09:10 1012 29.88 841 24.83 7.3 45.2 46 -3.5 25.7
09:15 1012 29.88 842 24.86 7.3 45.2 50 -2.5 27.5
09:20 1013 29.91 842 24.86 7 44.6 54 -1.7 28.9
09:25 1013 29.91 842 24.86 6.5 43.8 56 -1.7 29
09:30 1013 29.91 842 24.86 6.5 43.7 55 -1.8 28.7
09:35 1013 29.91 842 24.86 6.6 43.8 56 -1.6 29.2
09:40 1013 29.91 842 24.86 6.5 43.8 58 -1.2 29.8
09:45 1013 29.91 842 24.86 6.5 43.7 57 -1.4 29.6
09:50 1013 29.91 842 24.86 6.5 43.7 56 -1.7 28.9
09:55 1013 29.91 842 24.86 6.6 43.9 55 -1.8 28.7
10:00 1013 29.91 842 24.86 6.7 44.1 54 -1.9 28.6
10:05 1013 29.91 842 24.86 6.9 44.3 53 -1.9 28.5
10:10 1013 29.91 842 24.86 6.9 44.4 54 -1.7 28.9
10:15 1013 29.91 842 24.86 6.9 44.5 54 -1.8 28.7
10:20 1013 29.91 842 24.86 7 44.6 50 -2.6 27.3
10:25 1013 29.91 842 24.86 7.1 44.8 51 -2.2 28
10:30 1013 29.91 842 24.86 7.2 45 51 -2.3 27.9
10:35 1013 29.91 842 24.86 7.3 45.1 47 -3.3 26.1
10:40 1013 29.91 842 24.86 7.4 45.3 46 -3.4 25.9
10:45 1013 29.91 842 24.86 7.4 45.3 48 -2.9 26.8
10:50 1013 29.91 842 24.86 7.5 45.5 48 -2.8 27
10:55 1013 29.91 842 24.86 7.4 45.3 46 -3.5 25.8
11:00 1013 29.91 842 24.86 7.2 45 47 -3.3 26
11:05 1013 29.91 842 24.86 7.1 44.8 47 -3.5 25.8
11:10 1013 29.91 842 24.86 7.1 44.7 48 -3.1 26.5
11:15 1013 29.91 842 24.86 7 44.5 50 -2.7 27.2
11:20 1013 29.91 842 24.86 6.5 43.7 56 -1.6 29
11:25 1013 29.91 842 24.86 6.3 43.3 54 -2.3 27.8
11:30 1013 29.91 842 24.86 6.3 43.4 55 -2 28.5
11:35 1013 29.91 842 24.86 6.7 44 53 -2.3 27.8
11:40 1013 29.91 842 24.86 7.1 44.7 48 -3.2 26.3
11:45 1013 29.91 842 24.86 7.2 44.9 42 -4.8 23.4
11:50 1013 29.91 842 24.86 7 44.7 43 -4.8 23.4
11:55 1013 29.91 842 24.86 6.8 44.3 42 -5.1 22.9
12:00 1013 29.91 842 24.86 7.3 45.2 41 -5.1 22.8
12:05 1013 29.91 842 24.86 8.2 46.8 40 -4.7 23.5
12:10 1013 29.91 842 24.86 8.5 47.2 39 -4.8 23.4
12:15 1013 29.91 843 24.89 8.8 47.8 37 -5.2 22.6
12:20 1013 29.91 843 24.89 9.2 48.5 37 -4.9 23.2
12:25 1013 29.91 843 24.89 9.1 48.3 35 -5.8 21.6
12:30 1013 29.91 842 24.86 9.1 48.4 35 -5.7 21.7
12:35 1013 29.91 842 24.86 8.7 47.6 36 -5.4 22.3
12:40 1013 29.91 843 24.89 8.5 47.2 37 -5.3 22.5
12:45 1013 29.91 843 24.89 8.4 47 37 -5.4 22.3
12:50 1013 29.91 843 24.89 8.7 47.6 35 -5.8 21.5
12:55 1013 29.91 843 24.89 8.5 47.3 36 -5.7 21.7
13:00 1013 29.91 842 24.86 8.3 46.9 35 -6.3 20.7
13:05 1013 29.91 842 24.86 8.7 47.6 36 -5.7 21.8
13:10 1013 29.91 842 24.86 8.4 47.2 36 -5.6 21.8
13:15 1013 29.91 842 24.86 8.2 46.8 36 -5.9 21.5
13:20 1013 29.91 842 24.86 8.5 47.3 33 -6.7 19.9
13:25 1013 29.91 842 24.86 8.5 47.2 33 -7 19.5
13:30 1013 29.91 842 24.86 9.4 49 31 -6.9 19.6
13:35 1013 29.91 842 24.86 9.9 49.9 29 -7.2 19
13:40 1013 29.91 842 24.86 9.8 49.7 30 -7.1 19.3
13:45 1013 29.91 842 24.86 10 50 28 -7.8 17.9
13:50 1013 29.91 842 24.86 9.3 48.7 29 -7.8 17.9
13:55 1013 29.91 842 24.86 9.3 48.8 29 -7.7 18.2
14:00 1013 29.91 842 24.86 9.2 48.6 30 -7.5 18.4
14:05 1013 29.91 842 24.86 8.9 48 29 -8.2 17.3
14:10 1013 29.91 842 24.86 8.6 47.4 30 -8 17.7
14:15 1013 29.91 842 24.86 8.6 47.5 29 -8.3 17.1
14:20 1013 29.91 842 24.86 8.4 47.1 32 -7.4 18.7
14:25 1013 29.91 842 24.86 8.2 46.7 31 -8 17.6
14:30 1013 29.91 842 24.86 8.3 47 32 -7.6 18.4
14:35 1013 29.91 842 24.86 8.6 47.5 30 -7.9 17.7
14:40 1013 29.91 842 24.86 8.8 47.8 30 -7.9 17.8
14:45 1013 29.91 842 24.86 8.7 47.7 31 -7.5 18.5
14:50 1013 29.91 842 24.86 8.4 47 35 -6.3 20.6
14:55 1013 29.91 843 24.89 7.8 46 33 -7.6 18.3
15:00 1013 29.91 843 24.89 7.9 46.2 32 -8 17.7
15:05 1013 29.91 843 24.89 7.9 46.2 32 -7.7 18.2
15:10 1013 29.91 843 24.89 7.8 46.1 30 -8.5 16.7
15:15 1013 29.91 843 24.89 7.7 45.9 29 -9.1 15.7
15:20 1013 29.91 843 24.89 7.9 46.2 29 -9 15.7
15:25 1013 29.91 842 24.86 8.5 47.3 27 -9.6 14.7
15:30 1013 29.91 843 24.89 9.2 48.5 25 -9.8 14.4
15:35 1013 29.91 843 24.89 9.2 48.5 25 -9.7 14.6
15:40 1014 29.94 843 24.89 9.1 48.4 26 -9.2 15.4
15:45 1014 29.94 843 24.89 8.8 47.8 28 -8.5 16.7
15:50 1014 29.94 843 24.89 8.1 46.6 31 -8.1 17.5
15:55 1014 29.94 843 24.89 7.6 45.7 31 -8.3 17
16:00 1014 29.94 843 24.89 7.3 45.1 32 -8.3 17
16:05 1014 29.94 843 24.89 7.4 45.3 31 -8.7 16.3
16:10 1014 29.94 843 24.89 7.5 45.4 31 -8.7 16.3
16:15 1014 29.94 843 24.89 7.5 45.4 31 -8.6 16.4
16:20 1014 29.94 843 24.89 7.4 45.2 29 -9.6 14.8
16:25 1014 29.94 843 24.89 7.4 45.4 27 -10.3 13.4
16:30 1014 29.94 843 24.89 7.5 45.5 27 -10.5 13.1
16:35 1014 29.94 844 24.92 7.7 45.8 26 -10.6 12.9
16:40 1014 29.94 844 24.92 7.9 46.1 26 -10.7 12.7
16:45 1015 29.97 844 24.92 8 46.4 27 -10.1 13.9
16:50 1015 29.97 844 24.92 8 46.3 26 -10.6 12.9
16:55 1015 29.97 844 24.92 7.9 46.2 26 -10.5 13.2
17:00 1015 29.97 844 24.92 7.7 45.9 26 -10.6 13
17:05 1015 29.97 844 24.92 7.3 45.2 30 -9.1 15.5
17:10 1015 29.97 844 24.92 7.4 45.3 32 -8.3 17
17:15 1015 29.97 844 24.92 7.4 45.4 30 -9.1 15.6
17:20 1015 29.97 844 24.92 7 44.6 32 -8.6 16.4
17:25 1015 29.97 844 24.92 7.1 44.7 27 -10.8 12.6
17:30 1015 29.97 844 24.92 7.5 45.5 27 -10.3 13.4
17:35 1015 29.97 845 24.95 7.3 45.2 29 -9.5 15
17:40 1015 29.97 845 24.95 7.2 45 29 -9.5 14.9
17:45 1016 30 845 24.95 6.8 44.3 29 -9.8 14.4
17:50 1016 30 845 24.95 6.9 44.3 29 -10.1 13.8
17:55 1016 30 845 24.95 6.7 44.1 29 -10.1 13.7
18:00 1016 30 845 24.95 6.7 44 29 -10.2 13.6
18:05 1016 30 845 24.95 6.6 43.8 29 -10.2 13.7
18:10 1016 30 845 24.95 6.4 43.5 29 -10.4 13.2
18:15 1016 30 845 24.95 6.3 43.3 30 -10.2 13.6
18:20 1016 30 845 24.95 6 42.9 30 -10.1 13.8
18:25 1016 30 845 24.95 5.8 42.4 31 -10.1 13.8
18:30 1016 30 846 24.98 5.6 42.2 31 -10.1 13.8
18:35 1016 30 846 24.98 5.6 42.1 31 -10.2 13.6
18:40 1016 30 846 24.98 5.5 41.8 32 -10 14.1
18:45 1017 30.03 846 24.98 5.3 41.6 32 -10 14
18:50 1017 30.03 846 24.98 5.2 41.4 32 -10.2 13.7
18:55 1017 30.03 846 24.98 5.2 41.4 32 -10.1 13.8
19:00 1017 30.03 846 24.98 5.1 41.2 33 -9.9 14.1
19:05 1017 30.03 846 24.98 5 41 34 -9.8 14.4
19:10 1017 30.03 846 24.98 4.9 40.8 34 -9.5 14.8
19:15 1017 30.03 846 24.98 4.8 40.6 34 -9.9 14.2
19:20 1017 30.03 846 24.98 4.7 40.5 34 -9.9 14.2
19:25 1017 30.03 847 25.01 4.7 40.4 35 -9.6 14.8
19:30 1017 30.03 847 25.01 4.5 40.1 36 -9.4 15.1
19:35 1018 30.06 847 25.01 4.4 39.8 37 -9.1 15.5
19:40 1018 30.06 847 25.01 4.3 39.7 37 -9.3 15.3
19:45 1018 30.06 847 25.01 4.2 39.6 37 -9.1 15.6
19:50 1018 30.06 847 25.01 4.2 39.5 38 -9 15.8
19:55 1018 30.06 847 25.01 4.2 39.5 38 -9 15.7
20:00 1018 30.06 847 25.01 4.1 39.4 38 -9.2 15.5
20:05 1018 30.06 847 25.01 4.1 39.4 37 -9.2 15.5
20:10 1018 30.06 847 25.01 4.1 39.4 38 -9.2 15.5
20:15 1018 30.06 847 25.01 4 39.2 37 -9.4 15.1
20:20 1018 30.06 848 25.04 3.9 39 37 -9.6 14.7
20:25 1018 30.06 848 25.04 3.8 38.9 37 -9.5 14.8
20:30 1018 30.06 848 25.04 3.7 38.7 37 -9.5 14.8
20:35 1018 30.06 848 25.04 3.7 38.7 38 -9.5 14.9
20:40 1018 30.06 848 25.04 3.7 38.6 39 -9.1 15.7
20:45 1019 30.09 848 25.04 3.6 38.4 39 -9.2 15.5
20:50 1019 30.09 848 25.04 3.5 38.3 40 -8.9 16
20:55 1019 30.09 848 25.04 3.4 38.1 41 -8.6 16.6
21:00 1019 30.09 848 25.04 3.3 38 41 -8.7 16.4
21:05 1019 30.09 848 25.04 3.3 37.9 42 -8.6 16.6
21:10 1019 30.09 848 25.04 3.3 37.9 42 -8.4 16.9
21:15 1019 30.09 848 25.04 3.2 37.7 42 -8.4 16.8
21:20 1019 30.09 848 25.04 3.1 37.7 42 -8.4 16.8
21:25 1019 30.09 848 25.04 3.2 37.8 42 -8.4 16.9
21:30 1019 30.09 848 25.04 3.3 37.9 43 -8.3 17.1
21:35 1019 30.09 848 25.04 3.2 37.8 42 -8.4 16.8
21:40 1019 30.09 848 25.04 3.3 37.9 42 -8.5 16.7
21:45 1019 30.09 848 25.04 3.3 38 42 -8.4 16.8
21:50 1019 30.09 848 25.04 3.3 38 43 -8.2 17.3
21:55 1019 30.09 848 25.04 3.3 37.9 43 -8 17.6
22:00 1019 30.09 848 25.04 3.3 37.9 44 -7.9 17.7
22:05 1019 30.09 848 25.04 3.3 37.9 44 -7.8 18
22:10 1019 30.09 849 25.07 3.3 37.9 45 -7.6 18.3
22:15 1019 30.09 849 25.07 3.2 37.8 46 -7.4 18.7
22:20 1020 30.12 849 25.07 3.1 37.7 46 -7.3 18.9
22:25 1020 30.12 849 25.07 3.1 37.6 47 -7.1 19.2
22:30 1020 30.12 849 25.07 3 37.5 48 -7 19.4
22:35 1020 30.12 849 25.07 2.9 37.3 49 -6.8 19.7
22:40 1020 30.12 849 25.07 2.8 37.1 49 -6.7 19.9
22:45 1020 30.12 849 25.07 2.8 37 49 -6.8 19.8
22:50 1020 30.12 849 25.07 2.8 37.1 50 -6.7 19.9
22:55 1020 30.12 849 25.07 2.7 36.8 50 -6.7 20
23:00 1020 30.12 849 25.07 2.7 36.8 50 -6.6 20.1
23:05 1020 30.12 849 25.07 2.6 36.6 50 -6.7 20
23:10 1020 30.12 849 25.07 2.6 36.6 51 -6.7 20
23:15 1020 30.12 849 25.07 2.5 36.5 51 -6.6 20.2
23:20 1020 30.12 849 25.07 2.5 36.6 52 -6.4 20.6
23:25 1020 30.12 849 25.07 2.5 36.5 53 -6.2 20.9
23:30 1020 30.12 849 25.07 2.5 36.6 54 -5.7 21.7
23:35 1020 30.12 849 25.07 2.4 36.3 55 -5.7 21.7
23:40 1020 30.12 849 25.07 2.4 36.2 54 -5.9 21.3
23:45 1020 30.12 849 25.07 2.4 36.4 55 -5.8 21.6
23:50 1020 30.12 849 25.07 2.4 36.3 56 -5.5 22.2
23:55 1020 30.12 849 25.07 2.2 35.9 58 -5.3 22.4
24:00 1020 30.12 849 25.07 2 35.6 58 -5.5 22.2